createdAt,value
2022-08-28T00:00:08.234Z,3.40
2022-08-28T00:02:35.100Z,2.87
2022-08-28T00:05:02.171Z,3.23
2022-08-28T00:07:29.090Z,3.23
2022-08-28T00:09:55.859Z,3.73
2022-08-28T00:12:22.666Z,4.10
2022-08-28T00:14:49.421Z,3.40
2022-08-28T00:17:18.793Z,2.50
2022-08-28T00:19:45.523Z,3.80
2022-08-28T00:22:12.293Z,3.20
2022-08-28T00:24:39.219Z,5.10
2022-08-28T00:27:06.364Z,3.50
2022-08-28T00:29:33.238Z,3.70
2022-08-28T00:32:00.122Z,4.27
2022-08-28T00:34:32.938Z,4.00
2022-08-28T00:37:00.403Z,4.00
2022-08-28T00:39:27.210Z,3.60
2022-08-28T00:41:57.192Z,3.43
2022-08-28T00:44:27.093Z,3.70
2022-08-28T00:46:56.193Z,3.10
2022-08-28T00:49:25.583Z,3.00
2022-08-28T00:51:55.106Z,3.73
2022-08-28T00:54:22.614Z,3.60
2022-08-28T00:56:50.454Z,3.17
2022-08-28T00:59:20.121Z,3.17
2022-08-28T01:01:48.246Z,3.70
2022-08-28T01:04:17.697Z,3.57
2022-08-28T01:06:46.443Z,6.83
2022-08-28T01:09:15.298Z,3.40
2022-08-28T01:11:49.686Z,4.03
2022-08-28T01:14:19.861Z,4.30
2022-08-28T01:16:47.196Z,3.33
2022-08-28T01:19:18.449Z,3.27
2022-08-28T01:21:54.980Z,4.57
2022-08-28T01:24:23.293Z,4.47
2022-08-28T01:26:50.104Z,4.20
2022-08-28T01:29:17.152Z,3.77
2022-08-28T01:31:43.956Z,4.73
2022-08-28T01:34:12.171Z,3.17
2022-08-28T01:36:39.721Z,3.27
2022-08-28T01:39:09.226Z,4.20
2022-08-28T01:41:39.731Z,3.10
2022-08-28T01:44:06.462Z,3.43
2022-08-28T01:46:33.349Z,3.03
2022-08-28T01:49:00.253Z,3.50
2022-08-28T01:51:27.808Z,3.13
2022-08-28T01:54:01.706Z,3.93
2022-08-28T01:56:29.042Z,3.87
2022-08-28T01:58:57.182Z,4.13
2022-08-28T02:01:24.753Z,3.23
2022-08-28T02:03:51.549Z,4.80
2022-08-28T02:06:18.283Z,4.20
2022-08-28T02:08:45.188Z,3.70
2022-08-28T02:11:12.551Z,4.10
2022-08-28T02:13:40.769Z,3.70
2022-08-28T02:16:10.344Z,4.60
2022-08-28T02:18:37.542Z,4.17
2022-08-28T02:21:04.613Z,3.90
2022-08-28T02:23:31.378Z,4.13
2022-08-28T02:25:58.125Z,3.53
2022-08-28T02:28:24.822Z,5.07
2022-08-28T02:30:51.692Z,4.40
2022-08-28T02:33:19.828Z,3.90
2022-08-28T02:35:46.745Z,4.20
2022-08-28T02:38:13.798Z,3.83
2022-08-28T02:40:40.711Z,3.33
2022-08-28T02:43:07.527Z,3.50
2022-08-28T02:45:34.919Z,3.60
2022-08-28T02:48:01.720Z,4.23
2022-08-28T02:50:30.732Z,4.93
2022-08-28T02:52:57.879Z,3.90
2022-08-28T02:55:24.791Z,4.00
2022-08-28T02:57:52.152Z,4.63
2022-08-28T03:00:22.114Z,4.43
2022-08-28T03:02:49.958Z,3.50
2022-08-28T03:05:20.499Z,3.50
2022-08-28T03:07:49.220Z,5.30
2022-08-28T03:10:16.346Z,3.60
2022-08-28T03:12:43.084Z,3.87
2022-08-28T03:15:10.549Z,4.47
2022-08-28T03:17:37.548Z,3.60
2022-08-28T03:20:05.617Z,4.10
2022-08-28T03:22:32.341Z,5.30
2022-08-28T03:25:00.441Z,4.57
2022-08-28T03:27:27.161Z,4.47
2022-08-28T03:29:53.856Z,4.97
2022-08-28T03:32:20.750Z,4.27
2022-08-28T03:34:47.500Z,4.27
2022-08-28T03:37:14.203Z,3.80
2022-08-28T03:39:40.875Z,4.63
2022-08-28T03:42:09.080Z,4.50
2022-08-28T03:44:38.673Z,6.50
2022-08-28T03:47:05.931Z,4.13
2022-08-28T03:49:32.651Z,4.57
2022-08-28T03:51:59.367Z,4.97
2022-08-28T03:54:26.132Z,4.73
2022-08-28T03:56:52.848Z,4.23
2022-08-28T03:59:20.876Z,5.27
2022-08-28T04:01:52.849Z,5.07
2022-08-28T04:04:19.635Z,4.43
2022-08-28T04:06:46.352Z,4.60
2022-08-28T04:09:13.158Z,4.00
2022-08-28T04:11:41.286Z,3.47
2022-08-28T04:14:08.096Z,3.93
2022-08-28T04:16:36.258Z,3.90
2022-08-28T04:19:03.838Z,4.70
2022-08-28T04:21:30.594Z,4.67
2022-08-28T04:23:57.382Z,4.17
2022-08-28T04:26:26.172Z,4.97
2022-08-28T04:28:53.843Z,5.13
2022-08-28T04:31:31.613Z,4.50
2022-08-28T04:34:01.533Z,5.10
2022-08-28T04:36:29.145Z,3.97
2022-08-28T04:38:56.962Z,4.60
2022-08-28T04:41:23.689Z,4.40
2022-08-28T04:43:50.576Z,3.63
2022-08-28T04:46:17.417Z,4.40
2022-08-28T04:48:44.529Z,4.77
2022-08-28T04:51:13.898Z,4.60
2022-08-28T04:53:41.725Z,4.60
2022-08-28T04:56:11.531Z,5.27
2022-08-28T04:58:39.662Z,4.80
2022-08-28T05:01:08.489Z,4.93
2022-08-28T05:03:35.443Z,4.40
2022-08-28T05:06:02.768Z,4.93
2022-08-28T05:08:31.063Z,4.70
2022-08-28T05:10:57.902Z,4.90
2022-08-28T05:13:24.989Z,4.30
2022-08-28T05:15:52.629Z,4.77
2022-08-28T05:18:22.169Z,5.30
2022-08-28T05:20:48.903Z,4.17
2022-08-28T05:23:16.836Z,4.77
2022-08-28T05:25:47.618Z,5.57
2022-08-28T05:28:16.753Z,5.53
2022-08-28T05:30:44.286Z,5.90
2022-08-28T05:33:12.840Z,5.53
2022-08-28T05:35:42.133Z,5.03
2022-08-28T05:38:09.355Z,5.90
2022-08-28T05:40:41.383Z,4.60
2022-08-28T05:43:09.552Z,4.70
2022-08-28T05:45:36.283Z,4.83
2022-08-28T05:48:03.279Z,4.87
2022-08-28T05:50:30.083Z,5.40
2022-08-28T05:52:57.445Z,4.87
2022-08-28T05:55:24.179Z,5.53
2022-08-28T05:57:50.851Z,5.07
2022-08-28T06:00:18.931Z,5.53
2022-08-28T06:02:45.632Z,4.03
2022-08-28T06:05:13.045Z,5.10
2022-08-28T06:07:40.206Z,4.57
2022-08-28T06:10:07.246Z,4.10
2022-08-28T06:12:37.773Z,5.23
2022-08-28T06:15:05.428Z,4.80
2022-08-28T06:17:34.321Z,5.83
2022-08-28T06:20:01.028Z,4.87
2022-08-28T06:22:27.876Z,4.83
2022-08-28T06:24:54.581Z,5.07
2022-08-28T06:27:21.289Z,4.97
2022-08-28T06:29:48.031Z,4.30
2022-08-28T06:32:14.822Z,4.67
2022-08-28T06:34:42.876Z,4.80
2022-08-28T06:37:09.575Z,4.30
2022-08-28T06:39:36.447Z,5.63
2022-08-28T06:42:03.538Z,4.77
2022-08-28T06:44:30.235Z,5.67
2022-08-28T06:46:56.989Z,4.80
2022-08-28T06:49:23.672Z,5.20
2022-08-28T06:51:51.857Z,5.83
2022-08-28T06:54:22.931Z,3.43
2022-08-28T06:56:50.892Z,5.00
2022-08-28T06:59:17.672Z,4.30
2022-08-28T07:01:44.460Z,5.00
2022-08-28T07:04:12.075Z,4.70
2022-08-28T07:06:42.213Z,4.03
2022-08-28T07:09:11.811Z,4.03
2022-08-28T07:11:39.274Z,4.40
2022-08-28T07:14:07.318Z,4.97
2022-08-28T07:16:37.984Z,4.40
2022-08-28T07:19:05.386Z,4.07
2022-08-28T07:21:33.305Z,3.80
2022-08-28T07:24:05.722Z,4.30
2022-08-28T07:26:35.812Z,5.23
2022-08-28T07:29:10.974Z,4.10
2022-08-28T07:31:41.445Z,5.00
2022-08-28T07:34:09.174Z,5.33
2022-08-28T07:36:35.927Z,3.80
2022-08-28T07:39:03.537Z,4.90
2022-08-28T07:41:34.852Z,3.90
2022-08-28T07:44:01.886Z,3.93
2022-08-28T07:46:28.934Z,4.73
2022-08-28T07:48:55.727Z,5.63
2022-08-28T07:51:22.431Z,5.07
2022-08-28T07:53:49.255Z,4.40
2022-08-28T07:56:16.235Z,4.10
2022-08-28T07:58:44.272Z,4.67
2022-08-28T08:01:11.100Z,4.90
2022-08-28T08:03:37.945Z,4.90
2022-08-28T08:06:06.073Z,4.47
2022-08-28T08:08:33.776Z,4.47
2022-08-28T08:11:02.310Z,4.50
2022-08-28T08:13:30.222Z,4.50
2022-08-28T08:16:02.735Z,4.00
2022-08-28T08:18:29.987Z,3.60
2022-08-28T08:20:56.832Z,4.70
2022-08-28T08:23:24.089Z,5.03
2022-08-28T08:25:55.420Z,4.20
2022-08-28T08:28:22.583Z,4.10
2022-08-28T08:30:49.398Z,5.13
2022-08-28T08:33:17.475Z,4.87
2022-08-28T08:35:44.208Z,5.10
2022-08-28T08:38:10.920Z,4.63
2022-08-28T08:40:37.989Z,4.83
2022-08-28T08:43:05.240Z,4.70
2022-08-28T08:45:33.031Z,5.53
2022-08-28T08:48:00.920Z,3.40
2022-08-28T08:50:31.704Z,4.23
2022-08-28T08:53:15.990Z,4.83
2022-08-28T08:55:46.189Z,3.47
2022-08-28T08:58:21.102Z,3.40
2022-08-28T09:00:56.439Z,3.90
2022-08-28T09:03:25.955Z,4.10
2022-08-28T09:05:55.911Z,4.90
2022-08-28T09:08:29.936Z,3.30
2022-08-28T09:11:03.628Z,7.43
2022-08-28T09:13:41.101Z,4.63
2022-08-28T09:16:19.914Z,4.17
2022-08-28T09:18:47.122Z,4.80
2022-08-28T09:21:28.541Z,4.03
2022-08-28T09:23:57.480Z,4.83
2022-08-28T09:26:25.344Z,3.80
2022-08-28T09:29:01.199Z,4.93
2022-08-28T09:31:33.754Z,4.57
2022-08-28T09:34:23.055Z,4.20
2022-08-28T09:36:52.201Z,5.20
2022-08-28T09:39:21.470Z,3.97
2022-08-28T09:41:55.651Z,3.90
2022-08-28T09:44:22.372Z,3.80
2022-08-28T09:46:50.508Z,3.27
2022-08-28T09:49:24.418Z,4.80
2022-08-28T09:51:52.478Z,4.07
2022-08-28T09:54:25.564Z,3.50
2022-08-28T09:56:52.888Z,4.80
2022-08-28T09:59:22.715Z,5.43
2022-08-28T10:02:09.873Z,3.80
2022-08-28T10:04:54.350Z,3.87
2022-08-28T10:07:33.268Z,3.90
2022-08-28T10:10:15.315Z,3.73
2022-08-28T10:12:54.244Z,3.13
2022-08-28T10:15:27.538Z,3.10
2022-08-28T10:18:13.880Z,3.90
2022-08-28T10:20:50.314Z,3.70
2022-08-28T10:23:27.414Z,3.70
2022-08-28T10:25:59.756Z,3.53
2022-08-28T10:28:40.395Z,4.23
2022-08-28T10:31:15.676Z,4.27
2022-08-28T10:33:58.174Z,4.63
2022-08-28T10:36:34.864Z,4.10
2022-08-28T10:39:21.842Z,3.73
2022-08-28T10:41:54.703Z,3.40
2022-08-28T10:44:25.957Z,4.20
2022-08-28T10:46:55.468Z,3.20
2022-08-28T10:49:25.412Z,3.53
2022-08-28T10:51:56.778Z,2.80
2022-08-28T10:54:30.223Z,4.60
2022-08-28T10:57:05.267Z,3.33
2022-08-28T10:59:34.689Z,4.33
2022-08-28T11:02:12.877Z,4.80
2022-08-28T11:04:40.006Z,4.37
2022-08-28T11:07:11.297Z,3.70
2022-08-28T11:09:42.888Z,3.90
2022-08-28T11:12:35.751Z,5.27
2022-08-28T11:15:47.700Z,3.07
2022-08-28T11:18:51.149Z,3.47
2022-08-28T11:21:24.075Z,3.07
2022-08-28T11:24:03.443Z,3.30
2022-08-28T11:26:39.642Z,2.93
2022-08-28T11:29:06.691Z,3.60
2022-08-28T11:31:36.862Z,4.17
2022-08-28T11:34:03.672Z,3.10
2022-08-28T11:36:56.981Z,3.67
2022-08-28T11:39:23.703Z,3.00
2022-08-28T11:42:29.023Z,4.00
2022-08-28T11:44:57.049Z,2.83
2022-08-28T11:47:44.231Z,2.40
2022-08-28T11:50:34.480Z,3.73
2022-08-28T11:53:25.784Z,3.10
2022-08-28T11:56:08.735Z,3.20
2022-08-28T11:58:42.835Z,2.80
2022-08-28T12:01:13.384Z,2.40
2022-08-28T12:03:43.645Z,2.73
2022-08-28T12:06:11.634Z,2.57
2022-08-28T12:09:02.655Z,2.53
2022-08-28T12:11:52.459Z,2.83
2022-08-28T12:15:04.019Z,2.77
2022-08-28T12:17:47.915Z,2.80
2022-08-28T12:20:27.811Z,3.13
2022-08-28T12:22:57.924Z,3.03
2022-08-28T12:25:35.758Z,3.90
2022-08-28T12:28:18.315Z,3.40
2022-08-28T12:30:52.955Z,3.30
2022-08-28T12:33:26.567Z,3.40
2022-08-28T12:35:58.856Z,3.27
2022-08-28T12:38:27.414Z,3.80
2022-08-28T12:40:54.150Z,2.80
2022-08-28T12:43:29.839Z,2.97
2022-08-28T12:45:59.406Z,3.17
2022-08-28T12:48:29.890Z,2.77
2022-08-28T12:51:03.409Z,3.13
2022-08-28T12:53:39.828Z,3.30
2022-08-28T12:56:09.344Z,3.07
2022-08-28T12:58:37.983Z,3.33
2022-08-28T13:01:08.503Z,3.30
2022-08-28T13:03:43.219Z,3.47
2022-08-28T13:06:10.255Z,3.20
2022-08-28T13:08:37.540Z,2.83
2022-08-28T13:11:04.782Z,3.53
2022-08-28T13:13:35.875Z,2.80
2022-08-28T13:16:04.083Z,3.70
2022-08-28T13:18:37.465Z,3.40
2022-08-28T13:21:34.439Z,3.53
2022-08-28T13:24:26.412Z,2.47
2022-08-28T13:27:01.236Z,2.53
2022-08-28T13:29:28.091Z,2.90
2022-08-28T13:31:57.299Z,2.63
2022-08-28T13:34:27.535Z,3.70
2022-08-28T13:36:57.336Z,3.37
2022-08-28T13:39:24.592Z,3.43
2022-08-28T13:41:54.054Z,2.43
2022-08-28T13:44:30.777Z,3.07
2022-08-28T13:46:58.574Z,3.50
2022-08-28T13:49:27.148Z,2.73
2022-08-28T13:51:55.319Z,3.47
2022-08-28T13:54:23.628Z,2.80
2022-08-28T13:56:52.992Z,3.47
2022-08-28T13:59:20.242Z,2.53
2022-08-28T14:01:47.631Z,2.50
2022-08-28T14:04:14.813Z,3.43
2022-08-28T14:06:42.941Z,3.00
2022-08-28T14:09:09.827Z,3.10
2022-08-28T14:11:36.518Z,2.53
2022-08-28T14:14:03.216Z,2.70
2022-08-28T14:16:29.945Z,2.77
2022-08-28T14:18:56.718Z,3.40
2022-08-28T14:21:23.394Z,2.97
2022-08-28T14:23:51.414Z,2.80
2022-08-28T14:26:18.120Z,2.57
2022-08-28T14:28:44.790Z,2.47
2022-08-28T14:31:14.599Z,3.23
2022-08-28T14:33:42.363Z,3.00
2022-08-28T14:36:15.182Z,3.03
2022-08-28T14:38:42.086Z,3.50
2022-08-28T14:41:10.198Z,2.63
2022-08-28T14:43:36.925Z,3.00
2022-08-28T14:46:05.505Z,2.90
2022-08-28T14:48:35.100Z,3.27
2022-08-28T14:51:02.304Z,3.50
2022-08-28T14:53:28.955Z,3.00
2022-08-28T14:55:55.664Z,2.23
2022-08-28T14:58:23.703Z,2.63
2022-08-28T15:00:50.937Z,2.63
2022-08-28T15:03:18.854Z,2.53
2022-08-28T15:05:46.167Z,2.40
2022-08-28T15:08:15.520Z,2.37
2022-08-28T15:10:43.256Z,2.60
2022-08-28T15:13:10.734Z,2.90
2022-08-28T15:15:40.115Z,3.20
2022-08-28T15:18:07.900Z,3.80
2022-08-28T15:20:38.408Z,3.07
2022-08-28T15:23:05.108Z,2.67
2022-08-28T15:25:31.848Z,2.47
2022-08-28T15:27:58.562Z,2.80
2022-08-28T15:30:25.393Z,2.77
2022-08-28T15:32:53.552Z,2.57
2022-08-28T15:35:20.255Z,2.50
2022-08-28T15:37:47.112Z,2.60
2022-08-28T15:40:14.200Z,2.57
2022-08-28T15:42:43.440Z,2.90
2022-08-28T15:45:10.691Z,2.90
2022-08-28T15:47:37.370Z,2.37
2022-08-28T15:50:06.506Z,3.00
2022-08-28T15:52:33.235Z,2.40
2022-08-28T15:54:59.967Z,2.67
2022-08-28T15:57:26.774Z,2.33
2022-08-28T15:59:53.641Z,2.50
2022-08-28T16:02:22.787Z,2.40
2022-08-28T16:04:50.053Z,2.80
2022-08-28T16:07:19.866Z,3.60
2022-08-28T16:09:47.023Z,2.00
2022-08-28T16:12:14.017Z,2.97
2022-08-28T16:14:41.000Z,1.93
2022-08-28T16:17:10.629Z,2.60
2022-08-28T16:19:38.285Z,2.53
2022-08-28T16:22:05.153Z,2.40
2022-08-28T16:24:33.228Z,3.00
2022-08-28T16:27:00.012Z,2.40
2022-08-28T16:29:26.714Z,2.90
2022-08-28T16:31:53.458Z,2.30
2022-08-28T16:34:20.226Z,2.37
2022-08-28T16:36:47.227Z,2.20
2022-08-28T16:39:14.022Z,2.30
2022-08-28T16:41:42.335Z,2.40
2022-08-28T16:44:09.086Z,2.40
2022-08-28T16:46:35.848Z,2.43
2022-08-28T16:49:02.764Z,2.27
2022-08-28T16:51:29.493Z,2.53
2022-08-28T16:53:56.610Z,2.23
2022-08-28T16:56:23.775Z,2.80
2022-08-28T16:58:53.299Z,2.30
2022-08-28T17:01:21.225Z,2.37
2022-08-28T17:03:50.983Z,2.63
2022-08-28T17:06:19.986Z,2.60
2022-08-28T17:08:47.001Z,2.00
2022-08-28T17:11:14.010Z,2.87
2022-08-28T17:13:40.823Z,1.80
2022-08-28T17:16:09.294Z,3.10
2022-08-28T17:18:36.714Z,2.40
2022-08-28T17:21:03.581Z,2.13
2022-08-28T17:23:30.254Z,2.47
2022-08-28T17:25:57.008Z,2.40
2022-08-28T17:28:23.686Z,2.10
2022-08-28T17:30:50.381Z,2.47
2022-08-28T17:33:18.402Z,2.67
2022-08-28T17:35:45.119Z,2.40
2022-08-28T17:38:17.003Z,2.73
2022-08-28T17:40:43.977Z,2.27
2022-08-28T17:43:10.760Z,2.13
2022-08-28T17:45:37.492Z,3.20
2022-08-28T17:48:04.238Z,2.50
2022-08-28T17:50:32.271Z,2.83
2022-08-28T17:52:59.028Z,3.17
2022-08-28T17:55:25.761Z,2.43
2022-08-28T17:57:52.467Z,2.10
2022-08-28T18:00:19.453Z,2.43
2022-08-28T18:02:49.503Z,2.27
2022-08-28T18:05:16.207Z,2.73
2022-08-28T18:07:44.374Z,2.50
2022-08-28T18:10:11.708Z,2.70
2022-08-28T18:12:38.767Z,2.87
2022-08-28T18:15:07.605Z,2.00
2022-08-28T18:17:35.804Z,1.80
2022-08-28T18:20:07.873Z,1.97
2022-08-28T18:22:34.803Z,2.10
2022-08-28T18:25:02.866Z,2.93
2022-08-28T18:27:29.587Z,2.23
2022-08-28T18:29:56.251Z,2.20
2022-08-28T18:32:23.085Z,2.17
2022-08-28T18:34:49.882Z,2.30
2022-08-28T18:37:16.695Z,2.93
2022-08-28T18:39:43.648Z,2.80
2022-08-28T18:42:12.225Z,3.20
2022-08-28T18:44:38.895Z,2.83
2022-08-28T18:47:05.768Z,2.63
2022-08-28T18:49:32.521Z,2.70
2022-08-28T18:51:59.269Z,3.37
2022-08-28T18:54:25.949Z,2.73
2022-08-28T18:56:58.410Z,3.80
2022-08-28T18:59:29.572Z,2.90
2022-08-28T19:01:56.450Z,2.80
2022-08-28T19:04:23.422Z,2.70
2022-08-28T19:06:50.131Z,3.10
2022-08-28T19:09:17.030Z,3.47
2022-08-28T19:11:47.614Z,4.00
2022-08-28T19:14:14.301Z,3.93
2022-08-28T19:16:42.299Z,3.77
2022-08-28T19:19:09.035Z,4.20
2022-08-28T19:21:36.833Z,3.47
2022-08-28T19:24:03.716Z,4.10
2022-08-28T19:26:30.964Z,3.40
2022-08-28T19:28:58.019Z,3.67
2022-08-28T19:31:26.483Z,3.33
2022-08-28T19:33:55.082Z,3.87
2022-08-28T19:36:22.090Z,4.23
2022-08-28T19:38:48.846Z,4.23
2022-08-28T19:41:15.579Z,3.70
2022-08-28T19:43:43.011Z,3.33
2022-08-28T19:46:18.350Z,3.67
2022-08-28T19:48:46.885Z,3.10
2022-08-28T19:51:22.389Z,4.30
2022-08-28T19:53:56.104Z,5.50
2022-08-28T19:56:25.009Z,4.00
2022-08-28T19:58:51.734Z,4.27
2022-08-28T20:01:18.565Z,4.67
2022-08-28T20:03:45.323Z,4.10
2022-08-28T20:06:12.150Z,3.60
2022-08-28T20:08:40.347Z,5.60
2022-08-28T20:11:07.381Z,4.23
2022-08-28T20:13:34.456Z,5.07
2022-08-28T20:16:04.957Z,5.33
2022-08-28T20:18:31.688Z,4.83
2022-08-28T20:20:58.458Z,4.77
2022-08-28T20:23:25.159Z,5.20
2022-08-28T20:25:53.254Z,4.30
2022-08-28T20:28:20.143Z,5.67
2022-08-28T20:30:46.913Z,4.70
2022-08-28T20:33:13.888Z,4.80
2022-08-28T20:35:40.759Z,5.13
2022-08-28T20:38:07.638Z,4.97
2022-08-28T20:40:34.555Z,5.77
2022-08-28T20:43:03.119Z,5.17
2022-08-28T20:45:29.875Z,5.20
2022-08-28T20:47:56.575Z,5.73
2022-08-28T20:50:23.298Z,5.47
2022-08-28T20:52:50.013Z,6.30
2022-08-28T20:55:16.792Z,5.50
2022-08-28T20:57:43.608Z,6.67
2022-08-28T21:00:12.869Z,5.00
2022-08-28T21:02:39.811Z,5.77
2022-08-28T21:05:07.440Z,5.10
2022-08-28T21:07:34.198Z,5.30
2022-08-28T21:10:05.397Z,5.43
2022-08-28T21:12:34.396Z,5.27
2022-08-28T21:15:01.326Z,5.43
2022-08-28T21:17:30.762Z,5.40
2022-08-28T21:19:59.542Z,5.30
2022-08-28T21:22:26.345Z,5.10
2022-08-28T21:24:53.078Z,5.47
2022-08-28T21:27:19.838Z,5.37
2022-08-28T21:29:47.979Z,5.63
2022-08-28T21:32:14.819Z,5.93
2022-08-28T21:34:42.851Z,5.60
2022-08-28T21:37:09.607Z,5.30
2022-08-28T21:39:36.483Z,4.90
2022-08-28T21:42:03.451Z,4.93
2022-08-28T21:44:30.159Z,5.40
2022-08-28T21:46:58.809Z,5.00
2022-08-28T21:49:25.611Z,4.70
2022-08-28T21:51:53.628Z,3.80
2022-08-28T21:54:20.700Z,5.30
2022-08-28T21:56:48.265Z,4.00
2022-08-28T21:59:17.358Z,3.80
2022-08-28T22:01:44.214Z,4.47
2022-08-28T22:04:11.241Z,4.97
2022-08-28T22:06:38.034Z,4.10
2022-08-28T22:09:07.371Z,4.40
2022-08-28T22:11:34.506Z,4.80
2022-08-28T22:14:01.683Z,4.40
2022-08-28T22:16:28.974Z,4.63
2022-08-28T22:18:55.826Z,4.93
2022-08-28T22:21:24.567Z,5.57
2022-08-28T22:23:51.441Z,4.60
2022-08-28T22:26:21.108Z,4.60
2022-08-28T22:28:48.459Z,4.43
2022-08-28T22:31:15.212Z,4.87
2022-08-28T22:33:44.930Z,5.00
2022-08-28T22:36:12.067Z,4.63
2022-08-28T22:38:39.786Z,4.77
2022-08-28T22:41:07.502Z,5.83
2022-08-28T22:43:35.864Z,4.47
2022-08-28T22:46:03.250Z,4.30
2022-08-28T22:48:30.358Z,4.77
2022-08-28T22:51:02.490Z,5.33
2022-08-28T22:53:29.301Z,5.43
2022-08-28T22:55:55.984Z,4.30
2022-08-28T22:58:22.835Z,5.93
2022-08-28T23:00:50.915Z,5.07
2022-08-28T23:03:17.698Z,5.47
2022-08-28T23:05:44.565Z,5.30
2022-08-28T23:08:11.351Z,5.73
2022-08-28T23:10:58.110Z,4.30
2022-08-28T23:13:25.505Z,5.10
2022-08-28T23:15:53.597Z,4.77
2022-08-28T23:18:20.342Z,4.50
2022-08-28T23:20:47.147Z,5.13
2022-08-28T23:23:17.251Z,5.20
2022-08-28T23:25:44.001Z,4.87
2022-08-28T23:28:10.743Z,5.30
2022-08-28T23:30:37.604Z,4.77
2022-08-28T23:33:08.716Z,4.63
2022-08-28T23:35:36.374Z,4.60
2022-08-28T23:38:03.604Z,5.17
2022-08-28T23:40:30.507Z,5.30
2022-08-28T23:42:57.329Z,4.57
2022-08-28T23:45:24.069Z,5.23
2022-08-28T23:47:51.028Z,4.57
2022-08-28T23:50:21.346Z,3.80
2022-08-28T23:52:48.574Z,4.70
2022-08-28T23:55:17.388Z,4.93
2022-08-28T23:57:44.133Z,4.20
